sensor_id;sensor_type;location;lat;lon;timestamp;P1;durP1;ratioP1;P2;durP2;ratioP2
55776;SDS011;54079;44.540;18.784;2023-03-19T00:02:25;6.47;;;4.10;;
55776;SDS011;54079;44.540;18.784;2023-03-19T00:04:51;5.63;;;3.60;;
55776;SDS011;54079;44.540;18.784;2023-03-19T00:07:17;5.68;;;3.80;;
55776;SDS011;54079;44.540;18.784;2023-03-19T00:09:43;8.20;;;5.03;;
55776;SDS011;54079;44.540;18.784;2023-03-19T00:12:12;6.95;;;4.45;;
55776;SDS011;54079;44.540;18.784;2023-03-19T00:14:38;6.93;;;3.70;;
55776;SDS011;54079;44.540;18.784;2023-03-19T00:17:04;4.75;;;3.40;;
55776;SDS011;54079;44.540;18.784;2023-03-19T00:19:31;6.28;;;3.95;;
55776;SDS011;54079;44.540;18.784;2023-03-19T00:21:57;6.50;;;4.03;;
55776;SDS011;54079;44.540;18.784;2023-03-19T00:24:23;4.22;;;3.33;;
55776;SDS011;54079;44.540;18.784;2023-03-19T00:26:49;5.50;;;3.70;;
55776;SDS011;54079;44.540;18.784;2023-03-19T00:29:15;6.13;;;3.78;;
55776;SDS011;54079;44.540;18.784;2023-03-19T00:31:41;6.13;;;3.53;;
55776;SDS011;54079;44.540;18.784;2023-03-19T00:34:07;5.25;;;3.72;;
55776;SDS011;54079;44.540;18.784;2023-03-19T00:36:34;5.32;;;3.45;;
55776;SDS011;54079;44.540;18.784;2023-03-19T00:39:01;5.63;;;3.95;;
55776;SDS011;54079;44.540;18.784;2023-03-19T00:41:28;8.18;;;4.65;;
55776;SDS011;54079;44.540;18.784;2023-03-19T00:43:54;4.65;;;3.10;;
55776;SDS011;54079;44.540;18.784;2023-03-19T00:46:21;7.00;;;3.70;;
55776;SDS011;54079;44.540;18.784;2023-03-19T00:48:48;6.32;;;4.30;;
55776;SDS011;54079;44.540;18.784;2023-03-19T00:51:15;5.03;;;3.30;;
55776;SDS011;54079;44.540;18.784;2023-03-19T00:53:42;5.10;;;3.70;;
55776;SDS011;54079;44.540;18.784;2023-03-19T00:56:09;4.13;;;3.53;;
55776;SDS011;54079;44.540;18.784;2023-03-19T00:58:36;5.47;;;3.67;;
55776;SDS011;54079;44.540;18.784;2023-03-19T01:01:05;5.38;;;3.17;;
55776;SDS011;54079;44.540;18.784;2023-03-19T01:03:35;6.35;;;4.18;;
55776;SDS011;54079;44.540;18.784;2023-03-19T01:06:01;6.53;;;3.28;;
55776;SDS011;54079;44.540;18.784;2023-03-19T01:08:27;4.45;;;3.35;;
55776;SDS011;54079;44.540;18.784;2023-03-19T01:10:53;6.25;;;3.70;;
55776;SDS011;54079;44.540;18.784;2023-03-19T01:13:19;5.60;;;3.65;;
55776;SDS011;54079;44.540;18.784;2023-03-19T01:15:45;5.43;;;3.75;;
55776;SDS011;54079;44.540;18.784;2023-03-19T01:18:11;5.47;;;3.33;;
55776;SDS011;54079;44.540;18.784;2023-03-19T01:20:38;6.20;;;3.20;;
55776;SDS011;54079;44.540;18.784;2023-03-19T01:23:05;7.15;;;3.58;;
55776;SDS011;54079;44.540;18.784;2023-03-19T01:25:32;4.53;;;3.20;;
55776;SDS011;54079;44.540;18.784;2023-03-19T01:27:58;4.22;;;3.22;;
55776;SDS011;54079;44.540;18.784;2023-03-19T01:30:25;5.60;;;3.78;;
55776;SDS011;54079;44.540;18.784;2023-03-19T01:32:51;6.35;;;3.45;;
55776;SDS011;54079;44.540;18.784;2023-03-19T01:35:17;6.75;;;3.67;;
55776;SDS011;54079;44.540;18.784;2023-03-19T01:37:43;4.53;;;2.70;;
55776;SDS011;54079;44.540;18.784;2023-03-19T01:40:12;4.25;;;3.00;;
55776;SDS011;54079;44.540;18.784;2023-03-19T01:45:37;5.53;;;3.45;;
55776;SDS011;54079;44.540;18.784;2023-03-19T01:48:04;5.32;;;3.03;;
55776;SDS011;54079;44.540;18.784;2023-03-19T01:50:39;4.97;;;3.65;;
55776;SDS011;54079;44.540;18.784;2023-03-19T01:53:08;4.88;;;3.83;;
55776;SDS011;54079;44.540;18.784;2023-03-19T01:55:36;4.25;;;3.30;;
55776;SDS011;54079;44.540;18.784;2023-03-19T01:58:04;6.05;;;4.07;;
55776;SDS011;54079;44.540;18.784;2023-03-19T02:00:33;10.38;;;3.83;;
55776;SDS011;54079;44.540;18.784;2023-03-19T02:03:00;5.63;;;3.90;;
55776;SDS011;54079;44.540;18.784;2023-03-19T02:05:27;6.63;;;3.97;;
55776;SDS011;54079;44.540;18.784;2023-03-19T02:07:58;7.32;;;3.58;;
55776;SDS011;54079;44.540;18.784;2023-03-19T02:10:27;5.28;;;3.85;;
55776;SDS011;54079;44.540;18.784;2023-03-19T02:12:54;5.88;;;3.88;;
55776;SDS011;54079;44.540;18.784;2023-03-19T02:15:20;5.50;;;3.50;;
55776;SDS011;54079;44.540;18.784;2023-03-19T02:17:46;7.10;;;3.38;;
55776;SDS011;54079;44.540;18.784;2023-03-19T02:22:44;5.63;;;4.05;;
55776;SDS011;54079;44.540;18.784;2023-03-19T02:25:21;3.80;;;3.08;;
55776;SDS011;54079;44.540;18.784;2023-03-19T02:27:52;5.13;;;3.50;;
55776;SDS011;54079;44.540;18.784;2023-03-19T02:30:26;4.63;;;3.25;;
55776;SDS011;54079;44.540;18.784;2023-03-19T02:32:55;5.20;;;3.20;;
55776;SDS011;54079;44.540;18.784;2023-03-19T02:35:21;5.68;;;3.53;;
55776;SDS011;54079;44.540;18.784;2023-03-19T02:37:47;5.40;;;3.72;;
55776;SDS011;54079;44.540;18.784;2023-03-19T02:40:23;6.55;;;3.58;;
55776;SDS011;54079;44.540;18.784;2023-03-19T02:42:53;7.13;;;3.55;;
55776;SDS011;54079;44.540;18.784;2023-03-19T02:45:19;6.93;;;3.17;;
55776;SDS011;54079;44.540;18.784;2023-03-19T02:47:45;6.30;;;3.95;;
55776;SDS011;54079;44.540;18.784;2023-03-19T02:50:11;8.23;;;3.63;;
55776;SDS011;54079;44.540;18.784;2023-03-19T02:52:37;7.20;;;3.22;;
55776;SDS011;54079;44.540;18.784;2023-03-19T02:55:04;7.22;;;4.57;;
55776;SDS011;54079;44.540;18.784;2023-03-19T02:57:30;5.25;;;3.00;;
55776;SDS011;54079;44.540;18.784;2023-03-19T02:59:56;7.55;;;3.40;;
55776;SDS011;54079;44.540;18.784;2023-03-19T03:02:22;6.45;;;3.58;;
55776;SDS011;54079;44.540;18.784;2023-03-19T03:04:48;4.18;;;3.08;;
55776;SDS011;54079;44.540;18.784;2023-03-19T03:07:14;4.97;;;2.80;;
55776;SDS011;54079;44.540;18.784;2023-03-19T03:09:40;5.43;;;3.38;;
55776;SDS011;54079;44.540;18.784;2023-03-19T03:12:06;5.63;;;3.63;;
55776;SDS011;54079;44.540;18.784;2023-03-19T03:14:32;6.32;;;3.20;;
55776;SDS011;54079;44.540;18.784;2023-03-19T03:16:59;4.53;;;3.20;;
55776;SDS011;54079;44.540;18.784;2023-03-19T03:19:25;7.70;;;3.35;;
55776;SDS011;54079;44.540;18.784;2023-03-19T03:21:51;5.82;;;3.92;;
55776;SDS011;54079;44.540;18.784;2023-03-19T03:24:17;4.97;;;3.28;;
55776;SDS011;54079;44.540;18.784;2023-03-19T03:26:43;6.90;;;3.45;;
55776;SDS011;54079;44.540;18.784;2023-03-19T03:29:09;5.63;;;3.58;;
55776;SDS011;54079;44.540;18.784;2023-03-19T03:31:35;4.30;;;3.38;;
55776;SDS011;54079;44.540;18.784;2023-03-19T03:34:02;5.50;;;3.15;;
55776;SDS011;54079;44.540;18.784;2023-03-19T03:36:28;6.07;;;3.90;;
55776;SDS011;54079;44.540;18.784;2023-03-19T03:38:54;5.45;;;3.00;;
55776;SDS011;54079;44.540;18.784;2023-03-19T03:41:20;4.75;;;3.05;;
55776;SDS011;54079;44.540;18.784;2023-03-19T03:43:46;6.63;;;4.20;;
55776;SDS011;54079;44.540;18.784;2023-03-19T03:46:12;6.45;;;3.90;;
55776;SDS011;54079;44.540;18.784;2023-03-19T03:48:38;5.05;;;3.13;;
55776;SDS011;54079;44.540;18.784;2023-03-19T03:51:04;4.38;;;2.88;;
55776;SDS011;54079;44.540;18.784;2023-03-19T03:53:31;4.95;;;3.30;;
55776;SDS011;54079;44.540;18.784;2023-03-19T03:55:57;7.00;;;3.45;;
55776;SDS011;54079;44.540;18.784;2023-03-19T03:58:23;4.68;;;3.03;;
55776;SDS011;54079;44.540;18.784;2023-03-19T04:00:50;4.93;;;3.33;;
55776;SDS011;54079;44.540;18.784;2023-03-19T04:03:16;4.55;;;2.95;;
55776;SDS011;54079;44.540;18.784;2023-03-19T04:05:43;4.43;;;2.83;;
55776;SDS011;54079;44.540;18.784;2023-03-19T04:08:09;5.72;;;3.60;;
55776;SDS011;54079;44.540;18.784;2023-03-19T04:10:38;4.70;;;3.40;;
55776;SDS011;54079;44.540;18.784;2023-03-19T04:13:04;5.35;;;3.15;;
55776;SDS011;54079;44.540;18.784;2023-03-19T04:15:30;6.75;;;3.80;;
55776;SDS011;54079;44.540;18.784;2023-03-19T04:17:56;5.70;;;2.88;;
55776;SDS011;54079;44.540;18.784;2023-03-19T04:20:22;5.60;;;3.63;;
55776;SDS011;54079;44.540;18.784;2023-03-19T04:22:48;4.03;;;2.85;;
55776;SDS011;54079;44.540;18.784;2023-03-19T04:25:14;5.47;;;3.45;;
55776;SDS011;54079;44.540;18.784;2023-03-19T04:27:41;6.03;;;3.03;;
55776;SDS011;54079;44.540;18.784;2023-03-19T04:30:07;6.25;;;4.05;;
55776;SDS011;54079;44.540;18.784;2023-03-19T04:32:34;5.22;;;3.55;;
55776;SDS011;54079;44.540;18.784;2023-03-19T04:35:01;5.70;;;3.53;;
55776;SDS011;54079;44.540;18.784;2023-03-19T04:37:27;6.35;;;3.50;;
55776;SDS011;54079;44.540;18.784;2023-03-19T04:39:54;7.05;;;3.47;;
55776;SDS011;54079;44.540;18.784;2023-03-19T04:42:20;6.43;;;3.60;;
55776;SDS011;54079;44.540;18.784;2023-03-19T04:44:46;3.72;;;2.75;;
55776;SDS011;54079;44.540;18.784;2023-03-19T04:47:12;5.03;;;3.22;;
55776;SDS011;54079;44.540;18.784;2023-03-19T04:49:38;7.03;;;3.38;;
55776;SDS011;54079;44.540;18.784;2023-03-19T04:52:04;5.93;;;3.08;;
55776;SDS011;54079;44.540;18.784;2023-03-19T04:54:30;6.90;;;3.50;;
55776;SDS011;54079;44.540;18.784;2023-03-19T04:56:56;5.57;;;3.15;;
55776;SDS011;54079;44.540;18.784;2023-03-19T04:59:22;6.32;;;3.70;;
55776;SDS011;54079;44.540;18.784;2023-03-19T05:01:48;6.00;;;3.22;;
55776;SDS011;54079;44.540;18.784;2023-03-19T05:04:14;5.43;;;2.80;;
55776;SDS011;54079;44.540;18.784;2023-03-19T05:06:40;7.63;;;3.70;;
55776;SDS011;54079;44.540;18.784;2023-03-19T05:09:06;5.43;;;3.63;;
55776;SDS011;54079;44.540;18.784;2023-03-19T05:11:33;5.00;;;3.17;;
55776;SDS011;54079;44.540;18.784;2023-03-19T05:13:59;6.20;;;3.72;;
55776;SDS011;54079;44.540;18.784;2023-03-19T05:16:25;8.27;;;2.92;;
55776;SDS011;54079;44.540;18.784;2023-03-19T05:18:51;6.10;;;3.85;;
55776;SDS011;54079;44.540;18.784;2023-03-19T05:21:17;4.80;;;3.47;;
55776;SDS011;54079;44.540;18.784;2023-03-19T05:23:43;6.65;;;4.32;;
55776;SDS011;54079;44.540;18.784;2023-03-19T05:26:09;5.50;;;3.00;;
55776;SDS011;54079;44.540;18.784;2023-03-19T05:28:35;5.03;;;3.15;;
55776;SDS011;54079;44.540;18.784;2023-03-19T05:31:04;5.03;;;2.90;;
55776;SDS011;54079;44.540;18.784;2023-03-19T05:33:31;4.00;;;2.75;;
55776;SDS011;54079;44.540;18.784;2023-03-19T05:35:57;4.20;;;3.00;;
55776;SDS011;54079;44.540;18.784;2023-03-19T05:38:23;5.07;;;3.33;;
55776;SDS011;54079;44.540;18.784;2023-03-19T05:40:49;5.43;;;3.50;;
55776;SDS011;54079;44.540;18.784;2023-03-19T05:43:15;8.13;;;4.07;;
55776;SDS011;54079;44.540;18.784;2023-03-19T05:45:41;5.60;;;3.10;;
55776;SDS011;54079;44.540;18.784;2023-03-19T05:48:07;5.05;;;3.47;;
55776;SDS011;54079;44.540;18.784;2023-03-19T05:50:33;7.05;;;3.95;;
55776;SDS011;54079;44.540;18.784;2023-03-19T05:52:59;7.18;;;3.80;;
55776;SDS011;54079;44.540;18.784;2023-03-19T05:55:25;5.97;;;3.70;;
55776;SDS011;54079;44.540;18.784;2023-03-19T05:57:51;6.60;;;4.57;;
55776;SDS011;54079;44.540;18.784;2023-03-19T06:00:17;7.75;;;4.43;;
55776;SDS011;54079;44.540;18.784;2023-03-19T06:02:44;5.47;;;3.30;;
55776;SDS011;54079;44.540;18.784;2023-03-19T06:05:09;6.80;;;3.78;;
55776;SDS011;54079;44.540;18.784;2023-03-19T06:07:36;5.60;;;3.80;;
55776;SDS011;54079;44.540;18.784;2023-03-19T06:10:02;5.88;;;4.45;;
55776;SDS011;54079;44.540;18.784;2023-03-19T06:12:28;6.40;;;4.57;;
55776;SDS011;54079;44.540;18.784;2023-03-19T06:14:55;8.70;;;5.65;;
55776;SDS011;54079;44.540;18.784;2023-03-19T06:17:21;8.93;;;5.18;;
55776;SDS011;54079;44.540;18.784;2023-03-19T06:19:47;8.82;;;5.30;;
55776;SDS011;54079;44.540;18.784;2023-03-19T06:22:13;10.10;;;5.97;;
55776;SDS011;54079;44.540;18.784;2023-03-19T06:24:39;7.88;;;5.45;;
55776;SDS011;54079;44.540;18.784;2023-03-19T06:27:06;6.78;;;4.45;;
55776;SDS011;54079;44.540;18.784;2023-03-19T06:29:31;6.93;;;4.68;;
55776;SDS011;54079;44.540;18.784;2023-03-19T06:31:58;7.18;;;4.65;;
55776;SDS011;54079;44.540;18.784;2023-03-19T06:34:24;7.80;;;5.10;;
55776;SDS011;54079;44.540;18.784;2023-03-19T06:36:50;5.28;;;4.18;;
55776;SDS011;54079;44.540;18.784;2023-03-19T06:39:18;4.95;;;3.78;;
55776;SDS011;54079;44.540;18.784;2023-03-19T06:41:44;6.43;;;4.38;;
55776;SDS011;54079;44.540;18.784;2023-03-19T06:44:10;7.03;;;4.93;;
55776;SDS011;54079;44.540;18.784;2023-03-19T06:46:36;5.25;;;3.63;;
55776;SDS011;54079;44.540;18.784;2023-03-19T06:49:02;8.70;;;4.18;;
55776;SDS011;54079;44.540;18.784;2023-03-19T06:51:28;6.32;;;5.10;;
55776;SDS011;54079;44.540;18.784;2023-03-19T06:53:54;7.40;;;5.22;;
55776;SDS011;54079;44.540;18.784;2023-03-19T06:56:20;8.50;;;6.35;;
55776;SDS011;54079;44.540;18.784;2023-03-19T06:58:46;5.65;;;5.10;;
55776;SDS011;54079;44.540;18.784;2023-03-19T07:01:12;7.55;;;6.40;;
55776;SDS011;54079;44.540;18.784;2023-03-19T07:03:38;6.95;;;5.97;;
55776;SDS011;54079;44.540;18.784;2023-03-19T07:06:04;6.18;;;5.57;;
55776;SDS011;54079;44.540;18.784;2023-03-19T07:08:31;11.93;;;9.57;;
55776;SDS011;54079;44.540;18.784;2023-03-19T07:11:04;11.20;;;10.02;;
55776;SDS011;54079;44.540;18.784;2023-03-19T07:13:31;12.73;;;11.43;;
55776;SDS011;54079;44.540;18.784;2023-03-19T07:15:58;9.27;;;6.22;;
55776;SDS011;54079;44.540;18.784;2023-03-19T07:18:24;7.18;;;6.47;;
55776;SDS011;54079;44.540;18.784;2023-03-19T07:20:50;6.68;;;5.97;;
55776;SDS011;54079;44.540;18.784;2023-03-19T07:23:17;7.65;;;6.85;;
55776;SDS011;54079;44.540;18.784;2023-03-19T07:25:43;9.63;;;8.73;;
55776;SDS011;54079;44.540;18.784;2023-03-19T07:28:11;11.40;;;10.20;;
55776;SDS011;54079;44.540;18.784;2023-03-19T07:30:37;8.50;;;7.68;;
55776;SDS011;54079;44.540;18.784;2023-03-19T07:33:04;10.07;;;9.07;;
55776;SDS011;54079;44.540;18.784;2023-03-19T07:35:31;9.70;;;8.25;;
55776;SDS011;54079;44.540;18.784;2023-03-19T07:37:58;7.78;;;7.03;;
55776;SDS011;54079;44.540;18.784;2023-03-19T07:40:24;12.20;;;11.00;;
55776;SDS011;54079;44.540;18.784;2023-03-19T07:42:51;8.95;;;8.13;;
55776;SDS011;54079;44.540;18.784;2023-03-19T07:45:17;7.93;;;6.80;;
55776;SDS011;54079;44.540;18.784;2023-03-19T07:47:43;8.88;;;8.02;;
55776;SDS011;54079;44.540;18.784;2023-03-19T07:50:09;9.23;;;8.02;;
55776;SDS011;54079;44.540;18.784;2023-03-19T07:52:36;11.50;;;10.00;;
55776;SDS011;54079;44.540;18.784;2023-03-19T07:55:02;13.38;;;11.98;;
55776;SDS011;54079;44.540;18.784;2023-03-19T07:57:28;20.42;;;16.60;;
55776;SDS011;54079;44.540;18.784;2023-03-19T07:59:54;10.90;;;9.80;;
55776;SDS011;54079;44.540;18.784;2023-03-19T08:02:20;16.17;;;14.45;;
55776;SDS011;54079;44.540;18.784;2023-03-19T08:04:46;16.73;;;15.07;;
55776;SDS011;54079;44.540;18.784;2023-03-19T08:07:12;10.80;;;9.77;;
55776;SDS011;54079;44.540;18.784;2023-03-19T08:09:38;10.13;;;9.32;;
55776;SDS011;54079;44.540;18.784;2023-03-19T08:12:05;7.55;;;6.85;;
55776;SDS011;54079;44.540;18.784;2023-03-19T08:14:32;10.02;;;9.13;;
55776;SDS011;54079;44.540;18.784;2023-03-19T08:16:58;10.23;;;9.23;;
55776;SDS011;54079;44.540;18.784;2023-03-19T08:19:24;9.45;;;8.60;;
55776;SDS011;54079;44.540;18.784;2023-03-19T08:21:50;12.10;;;10.90;;
55776;SDS011;54079;44.540;18.784;2023-03-19T08:24:16;8.20;;;7.47;;
55776;SDS011;54079;44.540;18.784;2023-03-19T08:26:45;12.90;;;11.60;;
55776;SDS011;54079;44.540;18.784;2023-03-19T08:29:11;11.27;;;9.73;;
55776;SDS011;54079;44.540;18.784;2023-03-19T08:31:37;14.30;;;12.80;;
55776;SDS011;54079;44.540;18.784;2023-03-19T08:34:03;10.50;;;9.50;;
55776;SDS011;54079;44.540;18.784;2023-03-19T08:36:29;9.98;;;9.07;;
55776;SDS011;54079;44.540;18.784;2023-03-19T08:38:56;7.90;;;7.10;;
55776;SDS011;54079;44.540;18.784;2023-03-19T08:41:23;7.25;;;6.00;;
55776;SDS011;54079;44.540;18.784;2023-03-19T08:43:49;11.98;;;10.77;;
55776;SDS011;54079;44.540;18.784;2023-03-19T08:46:15;7.90;;;7.20;;
55776;SDS011;54079;44.540;18.784;2023-03-19T08:48:41;10.02;;;9.00;;
55776;SDS011;54079;44.540;18.784;2023-03-19T08:51:08;6.40;;;5.80;;
55776;SDS011;54079;44.540;18.784;2023-03-19T08:53:34;9.43;;;8.63;;
55776;SDS011;54079;44.540;18.784;2023-03-19T08:56:02;5.93;;;5.40;;
55776;SDS011;54079;44.540;18.784;2023-03-19T08:58:29;5.80;;;5.30;;
55776;SDS011;54079;44.540;18.784;2023-03-19T09:01:06;6.90;;;6.03;;
55776;SDS011;54079;44.540;18.784;2023-03-19T09:03:35;6.78;;;5.63;;
55776;SDS011;54079;44.540;18.784;2023-03-19T09:06:02;6.55;;;6.05;;
55776;SDS011;54079;44.540;18.784;2023-03-19T09:08:30;7.32;;;6.72;;
55776;SDS011;54079;44.540;18.784;2023-03-19T09:10:56;8.70;;;6.40;;
55776;SDS011;54079;44.540;18.784;2023-03-19T09:13:23;7.07;;;6.43;;
55776;SDS011;54079;44.540;18.784;2023-03-19T09:15:49;6.90;;;6.30;;
55776;SDS011;54079;44.540;18.784;2023-03-19T09:18:16;6.65;;;6.05;;
55776;SDS011;54079;44.540;18.784;2023-03-19T09:20:44;7.97;;;7.28;;
55776;SDS011;54079;44.540;18.784;2023-03-19T09:23:11;7.72;;;7.05;;
55776;SDS011;54079;44.540;18.784;2023-03-19T09:25:37;7.30;;;5.78;;
55776;SDS011;54079;44.540;18.784;2023-03-19T09:28:03;6.38;;;5.75;;
55776;SDS011;54079;44.540;18.784;2023-03-19T09:30:29;7.93;;;6.97;;
55776;SDS011;54079;44.540;18.784;2023-03-19T09:32:55;7.55;;;6.85;;
55776;SDS011;54079;44.540;18.784;2023-03-19T09:35:21;8.60;;;7.18;;
55776;SDS011;54079;44.540;18.784;2023-03-19T09:37:48;7.82;;;7.03;;
55776;SDS011;54079;44.540;18.784;2023-03-19T09:40:34;7.82;;;7.10;;
55776;SDS011;54079;44.540;18.784;2023-03-19T09:45:56;9.38;;;7.88;;
55776;SDS011;54079;44.540;18.784;2023-03-19T09:48:33;10.95;;;7.03;;
55776;SDS011;54079;44.540;18.784;2023-03-19T09:51:05;7.80;;;6.78;;
55776;SDS011;54079;44.540;18.784;2023-03-19T09:53:53;8.18;;;6.70;;
55776;SDS011;54079;44.540;18.784;2023-03-19T09:56:25;7.78;;;6.85;;
55776;SDS011;54079;44.540;18.784;2023-03-19T09:58:52;7.70;;;6.90;;
55776;SDS011;54079;44.540;18.784;2023-03-19T10:01:22;7.47;;;6.72;;
55776;SDS011;54079;44.540;18.784;2023-03-19T10:06:35;9.02;;;7.47;;
55776;SDS011;54079;44.540;18.784;2023-03-19T10:17:20;8.25;;;6.78;;
55776;SDS011;54079;44.540;18.784;2023-03-19T10:20:06;10.43;;;8.43;;
55776;SDS011;54079;44.540;18.784;2023-03-19T10:22:48;10.52;;;7.72;;
55776;SDS011;54079;44.540;18.784;2023-03-19T10:25:20;8.43;;;7.25;;
55776;SDS011;54079;44.540;18.784;2023-03-19T10:27:54;9.10;;;8.00;;
55776;SDS011;54079;44.540;18.784;2023-03-19T10:30:24;8.65;;;6.82;;
55776;SDS011;54079;44.540;18.784;2023-03-19T10:32:52;8.40;;;6.88;;
55776;SDS011;54079;44.540;18.784;2023-03-19T10:35:33;6.82;;;5.90;;
55776;SDS011;54079;44.540;18.784;2023-03-19T10:38:19;8.27;;;6.80;;
55776;SDS011;54079;44.540;18.784;2023-03-19T10:41:32;7.78;;;6.85;;
55776;SDS011;54079;44.540;18.784;2023-03-19T10:43:45;8.50;;;7.05;;
55776;SDS011;54079;44.540;18.784;2023-03-19T10:46:16;8.45;;;6.95;;
55776;SDS011;54079;44.540;18.784;2023-03-19T10:48:43;8.65;;;7.13;;
55776;SDS011;54079;44.540;18.784;2023-03-19T10:51:12;8.18;;;6.82;;
55776;SDS011;54079;44.540;18.784;2023-03-19T10:53:41;6.75;;;5.32;;
55776;SDS011;54079;44.540;18.784;2023-03-19T10:56:20;7.13;;;4.40;;
55776;SDS011;54079;44.540;18.784;2023-03-19T10:58:58;4.28;;;3.55;;
55776;SDS011;54079;44.540;18.784;2023-03-19T11:01:40;4.35;;;3.95;;
55776;SDS011;54079;44.540;18.784;2023-03-19T11:04:19;4.75;;;3.72;;
55776;SDS011;54079;44.540;18.784;2023-03-19T11:06:50;4.47;;;4.03;;
55776;SDS011;54079;44.540;18.784;2023-03-19T11:09:22;4.55;;;4.15;;
55776;SDS011;54079;44.540;18.784;2023-03-19T11:11:57;5.07;;;4.45;;
55776;SDS011;54079;44.540;18.784;2023-03-19T11:17:02;6.72;;;4.00;;
55776;SDS011;54079;44.540;18.784;2023-03-19T11:19:39;4.82;;;3.97;;
55776;SDS011;54079;44.540;18.784;2023-03-19T11:22:16;4.35;;;3.95;;
55776;SDS011;54079;44.540;18.784;2023-03-19T11:24:49;5.82;;;4.00;;
55776;SDS011;54079;44.540;18.784;2023-03-19T11:27:26;4.25;;;3.45;;
55776;SDS011;54079;44.540;18.784;2023-03-19T11:29:56;4.75;;;4.03;;
55776;SDS011;54079;44.540;18.784;2023-03-19T11:43:35;4.35;;;3.70;;
55776;SDS011;54079;44.540;18.784;2023-03-19T11:54:22;5.20;;;4.43;;
55776;SDS011;54079;44.540;18.784;2023-03-19T12:05:32;4.35;;;3.50;;
55776;SDS011;54079;44.540;18.784;2023-03-19T12:19:07;3.72;;;2.63;;
55776;SDS011;54079;44.540;18.784;2023-03-19T12:21:55;8.07;;;5.10;;
55776;SDS011;54079;44.540;18.784;2023-03-19T12:24:37;4.95;;;4.47;;
55776;SDS011;54079;44.540;18.784;2023-03-19T12:33:24;4.00;;;3.60;;
55776;SDS011;54079;44.540;18.784;2023-03-19T12:36:13;6.85;;;4.05;;
55776;SDS011;54079;44.540;18.784;2023-03-19T12:39:03;6.88;;;5.32;;
55776;SDS011;54079;44.540;18.784;2023-03-19T12:41:35;4.40;;;3.75;;
55776;SDS011;54079;44.540;18.784;2023-03-19T12:46:41;2.60;;;2.40;;
55776;SDS011;54079;44.540;18.784;2023-03-19T12:51:42;3.90;;;2.87;;
55776;SDS011;54079;44.540;18.784;2023-03-19T12:54:17;3.40;;;2.97;;
55776;SDS011;54079;44.540;18.784;2023-03-19T12:57:17;4.00;;;2.90;;
55776;SDS011;54079;44.540;18.784;2023-03-19T13:05:35;3.45;;;3.05;;
55776;SDS011;54079;44.540;18.784;2023-03-19T13:10:52;4.32;;;3.55;;
55776;SDS011;54079;44.540;18.784;2023-03-19T13:15:45;5.00;;;3.00;;
55776;SDS011;54079;44.540;18.784;2023-03-19T13:18:20;6.13;;;3.88;;
55776;SDS011;54079;44.540;18.784;2023-03-19T13:23:35;4.05;;;3.25;;
55776;SDS011;54079;44.540;18.784;2023-03-19T13:26:03;3.13;;;2.83;;
55776;SDS011;54079;44.540;18.784;2023-03-19T13:28:34;3.25;;;2.95;;
55776;SDS011;54079;44.540;18.784;2023-03-19T13:31:23;4.45;;;3.35;;
55776;SDS011;54079;44.540;18.784;2023-03-19T13:34:36;4.13;;;3.10;;
55776;SDS011;54079;44.540;18.784;2023-03-19T13:37:10;3.95;;;3.30;;
55776;SDS011;54079;44.540;18.784;2023-03-19T13:39:39;3.47;;;3.17;;
55776;SDS011;54079;44.540;18.784;2023-03-19T13:44:48;5.00;;;3.75;;
55776;SDS011;54079;44.540;18.784;2023-03-19T13:58:05;4.03;;;3.60;;
55776;SDS011;54079;44.540;18.784;2023-03-19T14:08:56;6.25;;;4.78;;
55776;SDS011;54079;44.540;18.784;2023-03-19T14:11:23;8.77;;;7.13;;
55776;SDS011;54079;44.540;18.784;2023-03-19T14:13:53;6.95;;;6.07;;
55776;SDS011;54079;44.540;18.784;2023-03-19T14:18:52;11.07;;;7.00;;
55776;SDS011;54079;44.540;18.784;2023-03-19T14:21:38;8.57;;;7.10;;
55776;SDS011;54079;44.540;18.784;2023-03-19T14:24:24;8.70;;;6.47;;
55776;SDS011;54079;44.540;18.784;2023-03-19T14:27:12;8.88;;;7.00;;
55776;SDS011;54079;44.540;18.784;2023-03-19T14:29:43;9.57;;;7.28;;
55776;SDS011;54079;44.540;18.784;2023-03-19T14:32:15;9.23;;;6.90;;
55776;SDS011;54079;44.540;18.784;2023-03-19T14:39:42;12.07;;;9.52;;
55776;SDS011;54079;44.540;18.784;2023-03-19T14:42:14;11.20;;;8.48;;
55776;SDS011;54079;44.540;18.784;2023-03-19T14:53:16;9.95;;;8.50;;
55776;SDS011;54079;44.540;18.784;2023-03-19T14:55:51;10.52;;;9.02;;
55776;SDS011;54079;44.540;18.784;2023-03-19T14:58:20;9.35;;;8.30;;
55776;SDS011;54079;44.540;18.784;2023-03-19T15:00:51;10.65;;;7.95;;
55776;SDS011;54079;44.540;18.784;2023-03-19T15:05:47;11.93;;;8.15;;
55776;SDS011;54079;44.540;18.784;2023-03-19T15:08:15;7.93;;;7.13;;
55776;SDS011;54079;44.540;18.784;2023-03-19T15:13:36;9.57;;;8.18;;
55776;SDS011;54079;44.540;18.784;2023-03-19T15:16:38;8.10;;;6.45;;
55776;SDS011;54079;44.540;18.784;2023-03-19T15:19:14;11.13;;;7.00;;
55776;SDS011;54079;44.540;18.784;2023-03-19T15:21:47;8.45;;;7.35;;
55776;SDS011;54079;44.540;18.784;2023-03-19T15:24:15;7.53;;;6.68;;
55776;SDS011;54079;44.540;18.784;2023-03-19T15:26:41;8.57;;;7.68;;
55776;SDS011;54079;44.540;18.784;2023-03-19T15:29:08;8.95;;;6.60;;
55776;SDS011;54079;44.540;18.784;2023-03-19T15:34:25;9.23;;;6.95;;
55776;SDS011;54079;44.540;18.784;2023-03-19T15:39:31;7.55;;;6.65;;
55776;SDS011;54079;44.540;18.784;2023-03-19T15:42:04;8.23;;;7.43;;
55776;SDS011;54079;44.540;18.784;2023-03-19T15:44:32;8.25;;;6.55;;
55776;SDS011;54079;44.540;18.784;2023-03-19T15:47:30;10.68;;;7.50;;
55776;SDS011;54079;44.540;18.784;2023-03-19T15:50:00;7.82;;;7.03;;
55776;SDS011;54079;44.540;18.784;2023-03-19T15:52:38;8.15;;;6.50;;
55776;SDS011;54079;44.540;18.784;2023-03-19T15:55:07;7.72;;;6.55;;
55776;SDS011;54079;44.540;18.784;2023-03-19T15:57:34;7.68;;;6.50;;
55776;SDS011;54079;44.540;18.784;2023-03-19T16:00:02;8.57;;;6.72;;
55776;SDS011;54079;44.540;18.784;2023-03-19T16:02:29;8.48;;;7.65;;
55776;SDS011;54079;44.540;18.784;2023-03-19T16:04:57;8.48;;;6.88;;
55776;SDS011;54079;44.540;18.784;2023-03-19T16:07:25;8.63;;;6.45;;
55776;SDS011;54079;44.540;18.784;2023-03-19T16:12:59;8.90;;;6.95;;
55776;SDS011;54079;44.540;18.784;2023-03-19T16:18:08;8.93;;;6.97;;
55776;SDS011;54079;44.540;18.784;2023-03-19T16:20:41;7.97;;;6.43;;
55776;SDS011;54079;44.540;18.784;2023-03-19T16:23:09;8.02;;;6.68;;
55776;SDS011;54079;44.540;18.784;2023-03-19T16:25:44;7.68;;;6.47;;
55776;SDS011;54079;44.540;18.784;2023-03-19T16:28:15;8.80;;;6.85;;
55776;SDS011;54079;44.540;18.784;2023-03-19T16:30:46;8.10;;;6.65;;
55776;SDS011;54079;44.540;18.784;2023-03-19T16:33:13;8.60;;;6.43;;
55776;SDS011;54079;44.540;18.784;2023-03-19T16:35:39;8.75;;;6.65;;
55776;SDS011;54079;44.540;18.784;2023-03-19T16:40:48;7.13;;;5.97;;
55776;SDS011;54079;44.540;18.784;2023-03-19T16:43:35;7.95;;;5.97;;
55776;SDS011;54079;44.540;18.784;2023-03-19T16:46:09;7.68;;;6.20;;
55776;SDS011;54079;44.540;18.784;2023-03-19T16:48:37;6.97;;;5.90;;
55776;SDS011;54079;44.540;18.784;2023-03-19T16:51:04;8.13;;;6.15;;
55776;SDS011;54079;44.540;18.784;2023-03-19T16:53:36;7.95;;;6.63;;
55776;SDS011;54079;44.540;18.784;2023-03-19T16:56:02;10.00;;;6.40;;
55776;SDS011;54079;44.540;18.784;2023-03-19T16:58:35;7.80;;;6.25;;
55776;SDS011;54079;44.540;18.784;2023-03-19T17:01:24;7.85;;;6.63;;
55776;SDS011;54079;44.540;18.784;2023-03-19T17:03:51;6.68;;;5.68;;
55776;SDS011;54079;44.540;18.784;2023-03-19T17:06:18;7.30;;;6.35;;
55776;SDS011;54079;44.540;18.784;2023-03-19T17:08:45;6.72;;;5.85;;